KTVI/TVI METAR and TAF weather

Enter ICAO airport designator
Station Type Date Time Source
KTVI METAR 2022/05/26 03:55 UTC NOAA

KTVI 260355Z AUTO 00000KT 10SM SCT020 22/21 A3012 RMK AO2


Station Type Date Time Source
KTVI Decoded METAR 2022/05/26 03:55 UTC NOAA

Thomasville, GA, United States (KTVI) 30-54-06N 083-52-53W
May 25, 2022 - 11:55 PM EDT / 2022.05.26 0355 UTC
Wind: Calm:0
Visibility: 10 mile(s):0
Sky conditions: partly cloudy
Temperature: 71 F (22 C)
Dew Point: 69 F (21 C)
Relative Humidity: 94%
Pressure (altimeter): 30.12 in. Hg (1019 hPa)
ob: KTVI 260355Z AUTO 00000KT 10SM SCT020 22/21 A3012 RMK AO2
cycle: 4

Station Type Date Time Source
KTVI TAF UTC NOAA

Error!

Example: see airport list